Detalii statie COMAGRA BEREGSAU [00001994]

Toti senzorii

Date Temperatura solului [C]Precipitatii [mm]Voltaj baterie [mV]Leaf Wetness [Min]HC Air temperature [C]HC Relative humidity [%]Punctul de roua [C]
medieminmaxsumaultimatimpmedieminmaxmediemediemin
2020-01-21 22:00:00 0.1 0 0.2 0 6738 -1.64 -1.84 -1.26 0 0 0
2020-01-21 23:00:00 0.1 0 0.3 0 6728 -1.9 -2.08 -1.84 0 0 0
2020-01-22 00:00:00 0.1 0.1 0.2 0 6728 -2.28 -2.49 -2.04 0 0 0
2020-01-22 01:00:00 0.2 0.1 0.3 0 6718 -2.27 -2.47 -2.19 0 0 0
2020-01-22 02:00:00 0.2 0.1 0.3 0 6718 -2.25 -2.35 -2.12 0 0 0
2020-01-22 03:00:00 0.1 -0.1 0.3 0 6718 -2.01 -2.16 -1.87 0 0 0
2020-01-22 04:00:00 0.2 0.1 0.3 0 6728 -1.67 -1.83 -1.51 0 0 0
2020-01-22 05:00:00 0.2 0.1 0.3 0 6728 -1.47 -1.5 -1.45 0 0 0
2020-01-22 06:00:00 0.1 0 0.3 0 6728 -1.44 -1.48 -1.41 0 0 0
2020-01-22 07:00:00 0.1 0.1 0.3 0 6718 -1.38 -1.41 -1.32 0 0 0
2020-01-22 08:00:00 0.1 0.1 0.2 0 6718 -1.28 -1.31 -1.25 0 0 0
2020-01-22 09:00:00 0.1 0 0.2 0 6728 -1.21 -1.3 -1.08 0 0 0
2020-01-22 10:00:00 0.1 0 0.3 0 6766 -0.85 -1.06 -0.62 0 0 0
2020-01-22 11:00:00 0.1 0.1 0.2 0 6834 -0.31 -0.56 -0.04 0 0 0
2020-01-22 12:00:00 0.1 0 0.3 0 6904 0.18 -0.14 0.46 0 0 0
2020-01-22 13:00:00 0.1 0.1 0.3 0 6952 0.79 0.59 1.18 0 0 0
2020-01-22 14:00:00 0.2 0.1 0.4 0 7030 1.28 1.1 1.51 0 0 0
2020-01-22 15:00:00 0.2 0.1 0.3 0 7206 2.56 1.26 4.4 0 0 0
2020-01-22 16:00:00 0.2 0.1 0.3 0 7186 2.74 2.51 2.99 0 0 0
2020-01-22 17:00:00 0.2 0 0.4 0 7040 1.93 0.6 2.65 0 0 0
2020-01-22 18:00:00 0.3 0.1 0.4 0 6932 -0.37 -0.83 0.09 0 0 0
2020-01-22 19:00:00 0.2 0.1 0.4 0 6894 -0.35 -0.6 -0.24 0 0 0
2020-01-22 20:00:00 0.2 0.1 0.3 0 6874 -0.2 -0.49 -0.03 0 0 0
2020-01-22 21:00:00 0.2 0.1 0.3 0 6864 -0.52 -0.61 -0.4 0 0 0
2020-01-22 22:00:00 0.2 0.1 0.4 0 6844 -0.24 -0.34 -0.14 0 0 0
2020-01-22 23:00:00 0.2 0.2 0.4 0 6844 -0.09 -0.17 -0.04 0 0 0
2020-01-23 00:00:00 0.2 0.2 0.3 0 6834 -0.24 -0.5 -0.05 0 0 0
2020-01-23 01:00:00 0.2 0.2 0.3 0 6816 -0.63 -0.78 -0.5 0 0 0
2020-01-23 02:00:00 0.2 0.1 0.4 0 6826 -1.38 -1.98 -0.8 0 0 0
2020-01-23 03:00:00 0.2 0.2 0.3 0 6806 -2.21 -2.64 -1.96 0 0 0
2020-01-23 04:00:00 0.3 0.2 0.4 0 6796 -3.13 -3.52 -2.67 0 0 0
2020-01-23 05:00:00 0.2 0.2 0.4 0 6796 -3.27 -3.64 -2.84 0 0 0
2020-01-23 06:00:00 0.3 0.2 0.4 0 6796 -2.28 -3.1 -1.68 0 0 0
2020-01-23 07:00:00 0.3 0.1 0.4 0 6796 -1.35 -1.51 -1.26 0 0 0
2020-01-23 08:00:00 0.2 0.2 0.4 0 6786 -1.41 -1.48 -1.33 0 0 0
2020-01-23 09:00:00 0.2 0.2 0.4 0 6786 -1.49 -1.54 -1.42 0 0 0
2020-01-23 10:00:00 0.3 0.2 0.4 0 6864 -1.52 -2.01 -1.2 0 0 0
2020-01-23 11:00:00 0.3 0.2 0.4 0 6972 -0.72 -1.13 -0.27 0 0 0
2020-01-23 12:00:00 0.2 0.2 0.4 0 7060 0.36 -0.15 1.2 0 0 0
2020-01-23 13:00:00 0.2 0.2 0.4 0 7196 2.49 1.08 3.89 0 0 0
2020-01-23 14:00:00 0.3 0.2 0.5 0 7196 4.1 3.7 4.81 0 0 0
2020-01-23 15:00:00 0.3 0.2 0.5 0 7206 4.69 4.01 5.39 0 0 0
2020-01-23 16:00:00 0.4 0.2 0.5 0 7186 5.08 4.83 5.51 0 0 0
2020-01-23 17:00:00 0.6 0.4 0.7 0 7118 3.54 1.88 4.97 0 0 0
2020-01-23 18:00:00 0.7 0.6 0.8 0 6952 0.67 0.12 1.52 0 0 0
2020-01-23 19:00:00 0.7 0.7 0.8 0 6894 -1.01 -2.18 0.21 0 0 0
2020-01-23 20:00:00 0.7 0.6 0.8 0 6864 -2.62 -3.28 -2.2 0 0 0
2020-01-23 21:00:00 0.6 0.6 0.7 0 6844 -2.74 -3.46 -2.16 0 0 0